createdAt,value
2022-08-17T00:00:52.098Z,20.76
2022-08-17T00:03:28.095Z,20.88
2022-08-17T00:06:00.163Z,20.92
2022-08-17T00:08:35.104Z,20.81
2022-08-17T00:11:06.142Z,20.81
2022-08-17T00:13:40.270Z,20.81
2022-08-17T00:16:14.908Z,20.73
2022-08-17T00:18:58.111Z,20.63
2022-08-17T00:21:59.932Z,20.48
2022-08-17T00:24:18.018Z,20.32
2022-08-17T00:26:45.545Z,20.40
2022-08-17T00:29:19.740Z,20.44
2022-08-17T00:31:47.011Z,20.37
2022-08-17T00:34:13.807Z,20.17
2022-08-17T00:36:40.542Z,20.13
2022-08-17T00:39:07.233Z,20.18
2022-08-17T00:41:35.711Z,20.19
2022-08-17T00:44:05.607Z,20.09
2022-08-17T00:46:40.964Z,20.17
2022-08-17T00:49:10.887Z,20.12
2022-08-17T00:52:00.510Z,19.97
2022-08-17T00:54:40.963Z,20.03
2022-08-17T00:57:16.398Z,20.10
2022-08-17T00:59:55.979Z,20.25
2022-08-17T01:02:42.906Z,20.37
2022-08-17T01:05:18.559Z,20.29
2022-08-17T01:07:50.646Z,20.38
2022-08-17T01:10:59.083Z,20.25
2022-08-17T01:13:11.129Z,20.25
2022-08-17T01:15:48.232Z,20.19
2022-08-17T01:18:16.591Z,20.25
2022-08-17T01:20:55.034Z,20.22
2022-08-17T01:23:25.795Z,20.29
2022-08-17T01:25:56.053Z,20.32
2022-08-17T01:28:52.316Z,20.35
2022-08-17T01:31:13.111Z,20.30
2022-08-17T01:33:39.764Z,20.10
2022-08-17T01:36:08.271Z,20.02
2022-08-17T01:38:38.454Z,19.90
2022-08-17T01:41:16.514Z,19.68
2022-08-17T01:44:04.104Z,19.78
2022-08-17T01:46:35.982Z,19.95
2022-08-17T01:49:09.134Z,19.91
2022-08-17T01:51:36.098Z,19.77
2022-08-17T01:54:24.199Z,19.46
2022-08-17T01:57:09.999Z,19.08
2022-08-17T01:59:55.485Z,19.11
2022-08-17T02:02:41.445Z,19.02
2022-08-17T02:05:09.774Z,18.76
2022-08-17T02:07:59.675Z,18.76
2022-08-17T02:10:23.723Z,18.82
2022-08-17T02:12:50.479Z,18.99
2022-08-17T02:15:17.345Z,19.05
2022-08-17T02:17:44.164Z,18.96
2022-08-17T02:20:10.935Z,19.04
2022-08-17T02:22:43.385Z,19.12
2022-08-17T02:25:16.192Z,19.22
2022-08-17T02:27:43.096Z,19.28
2022-08-17T02:30:59.096Z,19.33
2022-08-17T02:33:04.295Z,19.30
2022-08-17T02:35:33.124Z,19.30
2022-08-17T02:38:01.433Z,19.09
2022-08-17T02:40:36.123Z,19.08
2022-08-17T02:43:05.246Z,18.82
2022-08-17T02:45:31.928Z,18.58
2022-08-17T02:47:58.588Z,18.41
2022-08-17T02:50:26.270Z,18.34
2022-08-17T02:53:01.443Z,18.41
2022-08-17T02:55:34.364Z,18.39
2022-08-17T02:58:01.750Z,18.48
2022-08-17T03:00:36.164Z,18.42
2022-08-17T03:03:06.125Z,18.45
2022-08-17T03:05:36.850Z,18.32
2022-08-17T03:08:07.360Z,18.13
2022-08-17T03:10:40.109Z,18.09
2022-08-17T03:13:06.845Z,18.04
2022-08-17T03:15:34.892Z,18.03
2022-08-17T03:18:03.711Z,18.12
2022-08-17T03:20:33.227Z,18.37
2022-08-17T03:23:01.905Z,18.41
2022-08-17T03:25:38.789Z,18.44
2022-08-17T03:28:06.357Z,18.22
2022-08-17T03:30:34.256Z,18.23
2022-08-17T03:33:04.468Z,18.36
2022-08-17T03:35:34.489Z,18.51
2022-08-17T03:38:02.090Z,18.44
2022-08-17T03:40:34.789Z,18.15
2022-08-17T03:43:19.969Z,18.22
2022-08-17T03:46:05.776Z,18.26
2022-08-17T03:48:55.822Z,18.07
2022-08-17T03:51:42.906Z,18.01
2022-08-17T03:54:46.763Z,17.98
2022-08-17T03:57:27.363Z,17.86
2022-08-17T03:59:55.531Z,17.85
2022-08-17T04:02:29.386Z,17.95
2022-08-17T04:04:57.517Z,17.95
2022-08-17T04:07:29.305Z,17.79
2022-08-17T04:09:57.918Z,17.80
2022-08-17T04:12:32.011Z,17.85
2022-08-17T04:14:59.714Z,18.01
2022-08-17T04:17:29.342Z,18.15
2022-08-17T04:19:57.011Z,18.29
2022-08-17T04:22:32.377Z,18.29
2022-08-17T04:25:16.221Z,18.42
2022-08-17T04:27:42.919Z,18.45
2022-08-17T04:30:10.739Z,18.50
2022-08-17T04:33:06.243Z,18.54
2022-08-17T04:35:42.170Z,18.44
2022-08-17T04:38:12.428Z,18.43
2022-08-17T04:40:57.910Z,18.44
2022-08-17T04:43:31.434Z,18.49
2022-08-17T04:46:05.938Z,18.34
2022-08-17T04:48:42.563Z,18.35
2022-08-17T04:51:21.484Z,18.29
2022-08-17T04:53:54.281Z,18.21
2022-08-17T04:56:23.340Z,18.23
2022-08-17T04:59:00.150Z,18.37
2022-08-17T05:01:31.821Z,18.45
2022-08-17T05:04:33.220Z,18.59
2022-08-17T05:06:54.131Z,18.67
2022-08-17T05:09:21.526Z,18.64
2022-08-17T05:11:52.104Z,18.68
2022-08-17T05:14:18.773Z,18.72
2022-08-17T05:16:48.170Z,18.75
2022-08-17T05:19:14.828Z,18.67
2022-08-17T05:21:41.505Z,18.61
2022-08-17T05:24:13.514Z,18.76
2022-08-17T05:26:54.863Z,18.78
2022-08-17T05:29:21.964Z,18.86
2022-08-17T05:32:38.146Z,18.97
2022-08-17T05:35:00.411Z,18.99
2022-08-17T05:37:27.747Z,19.08
2022-08-17T05:39:54.504Z,19.10
2022-08-17T05:42:21.613Z,19.22
2022-08-17T05:44:48.356Z,19.28
2022-08-17T05:47:15.072Z,19.30
2022-08-17T05:49:41.719Z,19.41
2022-08-17T05:52:13.312Z,19.52
2022-08-17T05:55:07.043Z,19.48
2022-08-17T05:57:53.029Z,19.42
2022-08-17T06:00:31.346Z,19.58
2022-08-17T06:03:11.947Z,19.59
2022-08-17T06:05:59.765Z,19.79
2022-08-17T06:08:57.120Z,19.97
2022-08-17T06:11:45.543Z,20.19
2022-08-17T06:14:21.131Z,20.36
2022-08-17T06:16:58.615Z,20.50
2022-08-17T06:19:47.345Z,20.61
2022-08-17T06:22:20.082Z,20.78
2022-08-17T06:25:18.947Z,20.84
2022-08-17T06:28:00.110Z,20.84
2022-08-17T06:30:57.612Z,20.82
2022-08-17T06:33:35.338Z,20.96
2022-08-17T06:36:30.170Z,21.15
2022-08-17T06:39:09.349Z,21.41
2022-08-17T06:41:58.106Z,21.59
2022-08-17T06:44:51.149Z,21.73
2022-08-17T06:47:29.460Z,21.95
2022-08-17T06:50:18.494Z,22.07
2022-08-17T06:53:24.471Z,21.94
2022-08-17T06:56:08.862Z,21.98
2022-08-17T06:58:40.277Z,22.01
2022-08-17T07:01:18.108Z,22.26
2022-08-17T07:03:54.699Z,22.35
2022-08-17T07:06:38.268Z,22.32
2022-08-17T07:09:17.345Z,22.54
2022-08-17T07:12:03.108Z,22.67
2022-08-17T07:14:45.950Z,22.67
2022-08-17T07:17:18.343Z,22.92
2022-08-17T07:19:49.115Z,23.16
2022-08-17T07:22:57.874Z,23.34
2022-08-17T07:25:21.499Z,23.42
2022-08-17T07:27:54.107Z,23.47
2022-08-17T07:30:25.454Z,23.67
2022-08-17T07:32:59.631Z,23.90
2022-08-17T07:35:31.342Z,24.06
2022-08-17T07:38:25.240Z,24.30
2022-08-17T07:41:01.885Z,24.51
2022-08-17T07:43:31.475Z,24.68
2022-08-17T07:46:33.893Z,24.74
2022-08-17T07:49:03.453Z,24.90
2022-08-17T07:51:55.377Z,25.04
2022-08-17T07:54:40.713Z,25.22
2022-08-17T07:57:13.541Z,25.44
2022-08-17T08:00:03.532Z,25.53
2022-08-17T08:02:38.596Z,25.84
2022-08-17T08:05:44.303Z,25.97
2022-08-17T08:08:33.085Z,26.15
2022-08-17T08:11:15.519Z,26.32
2022-08-17T08:13:45.560Z,26.45
2022-08-17T08:16:21.133Z,26.65
2022-08-17T08:18:54.169Z,26.84
2022-08-17T08:21:41.734Z,27.00
2022-08-17T08:24:19.738Z,27.20
2022-08-17T08:27:16.796Z,27.32
2022-08-17T08:30:10.459Z,27.35
2022-08-17T08:33:08.937Z,27.54
2022-08-17T08:36:03.342Z,27.65
2022-08-17T08:39:24.487Z,27.67
2022-08-17T08:41:59.253Z,27.79
2022-08-17T08:45:01.053Z,27.89
2022-08-17T08:48:23.168Z,28.07
2022-08-17T08:51:32.161Z,28.22
2022-08-17T08:54:31.402Z,28.35
2022-08-17T08:57:33.679Z,28.35
2022-08-17T09:00:23.257Z,28.41
2022-08-17T09:03:37.600Z,28.61
2022-08-17T09:06:38.908Z,28.68
2022-08-17T09:09:22.881Z,28.78
2022-08-17T09:12:29.802Z,28.93
2022-08-17T09:15:17.587Z,28.98
2022-08-17T09:19:00.954Z,29.00
2022-08-17T09:21:18.290Z,29.05
2022-08-17T09:24:11.297Z,29.18
2022-08-17T09:26:53.882Z,29.31
2022-08-17T09:29:26.355Z,29.38
2022-08-17T09:32:03.838Z,29.50
2022-08-17T09:34:43.637Z,29.44
2022-08-17T09:38:05.153Z,29.55
2022-08-17T09:40:47.347Z,29.51
2022-08-17T09:43:39.329Z,29.64
2022-08-17T09:46:18.485Z,29.78
2022-08-17T09:48:57.476Z,29.88
2022-08-17T09:51:51.903Z,29.93
2022-08-17T09:54:41.548Z,29.85
2022-08-17T09:57:47.443Z,29.91
2022-08-17T10:00:27.153Z,30.07
2022-08-17T10:03:35.130Z,30.25
2022-08-17T10:06:22.222Z,30.47
2022-08-17T10:08:54.986Z,30.49
2022-08-17T10:11:52.573Z,30.54
2022-08-17T10:14:53.378Z,30.71
2022-08-17T10:18:10.976Z,30.93
2022-08-17T10:21:17.369Z,31.06
2022-08-17T10:24:08.460Z,31.10
2022-08-17T10:26:56.743Z,31.07
2022-08-17T10:29:55.439Z,31.03
2022-08-17T10:32:59.187Z,31.07
2022-08-17T10:35:46.902Z,31.24
2022-08-17T10:38:46.386Z,31.34
2022-08-17T10:41:42.673Z,31.44
2022-08-17T10:44:37.158Z,31.28
2022-08-17T10:47:17.575Z,31.26
2022-08-17T10:49:53.474Z,31.36
2022-08-17T10:52:20.021Z,31.55
2022-08-17T10:55:06.255Z,31.59
2022-08-17T10:57:47.536Z,31.73
2022-08-17T11:00:39.698Z,31.78
2022-08-17T11:03:21.205Z,31.78
2022-08-17T11:06:32.844Z,31.80
2022-08-17T11:09:08.897Z,31.68
2022-08-17T11:12:08.053Z,31.63
2022-08-17T11:14:52.911Z,31.77
2022-08-17T11:18:01.464Z,32.00
2022-08-17T11:20:56.910Z,32.22
2022-08-17T11:23:52.972Z,32.38
2022-08-17T11:26:29.633Z,32.31
2022-08-17T11:29:09.592Z,32.33
2022-08-17T11:31:44.813Z,32.13
2022-08-17T11:34:23.083Z,32.07
2022-08-17T11:37:27.597Z,32.23
2022-08-17T11:40:25.343Z,32.42
2022-08-17T11:43:25.583Z,32.61
2022-08-17T11:46:57.260Z,32.51
2022-08-17T11:50:45.053Z,32.31
2022-08-17T11:53:39.611Z,32.29
2022-08-17T11:56:09.545Z,32.30
2022-08-17T11:58:43.030Z,32.22
2022-08-17T12:01:13.622Z,32.40
2022-08-17T12:03:55.520Z,32.20
2022-08-17T12:06:47.131Z,32.12
2022-08-17T12:09:24.882Z,32.05
2022-08-17T12:12:16.659Z,32.21
2022-08-17T12:15:12.893Z,32.40
2022-08-17T12:17:42.855Z,32.64
2022-08-17T12:20:37.721Z,32.87
2022-08-17T12:23:36.273Z,33.11
2022-08-17T12:26:15.920Z,33.23
2022-08-17T12:28:48.292Z,33.29
2022-08-17T12:31:28.710Z,33.44
2022-08-17T12:33:56.693Z,33.37
2022-08-17T12:36:28.380Z,33.18
2022-08-17T12:39:14.023Z,32.94
2022-08-17T12:41:50.419Z,32.68
2022-08-17T12:44:18.636Z,32.76
2022-08-17T12:47:22.169Z,32.80
2022-08-17T12:50:04.010Z,33.10
2022-08-17T12:52:32.913Z,32.96
2022-08-17T12:55:24.587Z,33.23
2022-08-17T12:57:59.634Z,33.51
2022-08-17T13:00:34.725Z,33.80
2022-08-17T13:03:26.361Z,34.33
2022-08-17T13:05:52.989Z,34.53
2022-08-17T13:08:27.780Z,34.39
2022-08-17T13:11:04.152Z,34.08
2022-08-17T13:13:42.261Z,33.58
2022-08-17T13:16:12.016Z,33.12
2022-08-17T13:18:49.576Z,32.65
2022-08-17T13:21:19.234Z,32.34
2022-08-17T13:24:38.078Z,32.13
2022-08-17T13:27:13.279Z,31.98
2022-08-17T13:29:54.630Z,31.79
2022-08-17T13:32:47.345Z,31.70
2022-08-17T13:35:47.672Z,31.49
2022-08-17T13:38:40.468Z,31.30
2022-08-17T13:41:07.525Z,31.19
2022-08-17T13:43:50.497Z,31.13
2022-08-17T13:46:31.879Z,31.11
2022-08-17T13:49:03.597Z,31.15
2022-08-17T13:51:41.516Z,31.03
2022-08-17T13:54:35.119Z,31.01
2022-08-17T13:57:12.499Z,31.03
2022-08-17T13:59:55.214Z,31.03
2022-08-17T14:02:27.780Z,31.11
2022-08-17T14:04:55.828Z,31.31
2022-08-17T14:07:36.105Z,31.68
2022-08-17T14:10:16.111Z,32.49
2022-08-17T14:12:45.317Z,33.16
2022-08-17T14:15:17.540Z,33.44
2022-08-17T14:17:44.419Z,33.23
2022-08-17T14:20:13.049Z,32.75
2022-08-17T14:22:49.534Z,32.49
2022-08-17T14:25:30.142Z,32.38
2022-08-17T14:27:57.089Z,32.37
2022-08-17T14:30:29.814Z,32.87
2022-08-17T14:32:58.835Z,33.48
2022-08-17T14:35:27.771Z,33.94
2022-08-17T14:37:54.769Z,33.87
2022-08-17T14:40:24.830Z,33.75
2022-08-17T14:42:55.070Z,33.50
2022-08-17T14:45:33.016Z,33.35
2022-08-17T14:48:07.667Z,33.03
2022-08-17T14:50:41.074Z,32.68
2022-08-17T14:53:11.077Z,32.48
2022-08-17T14:55:40.687Z,32.24
2022-08-17T14:58:09.941Z,31.90
2022-08-17T15:00:38.498Z,31.64
2022-08-17T15:03:05.353Z,31.34
2022-08-17T15:05:39.274Z,31.07
2022-08-17T15:08:07.585Z,30.79
2022-08-17T15:10:34.714Z,30.78
2022-08-17T15:13:01.946Z,30.58
2022-08-17T15:15:29.868Z,30.52
2022-08-17T15:17:58.258Z,30.59
2022-08-17T15:20:29.857Z,30.58
2022-08-17T15:22:58.956Z,30.62
2022-08-17T15:25:29.619Z,30.67
2022-08-17T15:27:56.736Z,30.58
2022-08-17T15:30:25.864Z,30.48
2022-08-17T15:32:54.939Z,30.46
2022-08-17T15:35:28.296Z,30.32
2022-08-17T15:38:08.113Z,30.27
2022-08-17T15:40:43.269Z,30.21
2022-08-17T15:43:17.159Z,30.06
2022-08-17T15:45:45.133Z,29.95
2022-08-17T15:48:41.136Z,29.88
2022-08-17T15:51:19.491Z,29.92
2022-08-17T15:53:51.763Z,29.87
2022-08-17T15:56:19.758Z,29.74
2022-08-17T15:58:48.693Z,29.80
2022-08-17T16:03:13.249Z,29.83
2022-08-17T16:04:26.910Z,29.75
2022-08-17T16:06:54.024Z,29.67
2022-08-17T16:09:20.629Z,29.73
2022-08-17T16:11:53.720Z,29.68
2022-08-17T16:14:24.029Z,29.66
2022-08-17T16:16:50.897Z,29.59
2022-08-17T16:19:17.846Z,29.56
2022-08-17T16:21:44.533Z,29.54
2022-08-17T16:24:13.280Z,29.48
2022-08-17T16:26:40.592Z,29.54
2022-08-17T16:29:08.416Z,29.70
2022-08-17T16:31:36.076Z,30.02
2022-08-17T16:34:17.333Z,30.44
2022-08-17T16:36:55.583Z,30.60
2022-08-17T16:39:28.892Z,30.58
2022-08-17T16:41:56.904Z,30.64
2022-08-17T16:44:24.760Z,30.58
2022-08-17T16:46:51.517Z,30.57
2022-08-17T16:49:35.297Z,30.55
2022-08-17T16:52:05.502Z,30.62
2022-08-17T16:54:51.499Z,30.64
2022-08-17T16:57:24.768Z,30.65
2022-08-17T16:59:53.544Z,30.41
2022-08-17T17:02:31.611Z,30.35
2022-08-17T17:05:16.092Z,30.27
2022-08-17T17:07:58.381Z,30.34
2022-08-17T17:10:48.797Z,30.37
2022-08-17T17:13:32.888Z,30.10
2022-08-17T17:16:28.801Z,29.95
2022-08-17T17:19:27.901Z,29.67
2022-08-17T17:22:15.213Z,29.49
2022-08-17T17:25:07.312Z,29.37
2022-08-17T17:27:57.262Z,29.18
2022-08-17T17:30:28.184Z,29.02
2022-08-17T17:33:04.986Z,28.85
2022-08-17T17:36:15.809Z,28.79
2022-08-17T17:38:53.039Z,28.62
2022-08-17T17:41:47.122Z,28.52
2022-08-17T17:44:28.744Z,28.48
2022-08-17T17:46:59.402Z,28.34
2022-08-17T17:49:38.233Z,28.22
2022-08-17T17:53:02.089Z,28.17
2022-08-17T17:56:06.857Z,28.03
2022-08-17T17:59:13.413Z,27.86
2022-08-17T18:02:47.345Z,27.76
2022-08-17T18:05:37.238Z,27.71
2022-08-17T18:08:11.529Z,27.67
2022-08-17T18:11:00.738Z,27.61
2022-08-17T18:13:56.562Z,27.52
2022-08-17T18:16:23.948Z,27.42
2022-08-17T18:18:52.612Z,27.38
2022-08-17T18:21:30.106Z,27.24
2022-08-17T18:24:06.893Z,27.14
2022-08-17T18:26:33.444Z,27.06
2022-08-17T18:29:07.764Z,26.94
2022-08-17T18:31:34.379Z,26.91
2022-08-17T18:37:26.434Z,26.79
2022-08-17T18:39:53.133Z,26.57
2022-08-17T18:42:28.160Z,26.54
2022-08-17T18:44:55.812Z,26.49
2022-08-17T18:47:29.543Z,26.25
2022-08-17T18:50:20.044Z,26.12
2022-08-17T18:52:50.610Z,26.07
2022-08-17T18:55:35.859Z,26.02
2022-08-17T18:58:25.702Z,25.97
2022-08-17T19:01:20.949Z,25.95
2022-08-17T19:04:27.395Z,25.81
2022-08-17T19:07:22.142Z,25.75
2022-08-17T19:10:46.314Z,25.63
2022-08-17T19:13:42.402Z,25.64
2022-08-17T19:17:14.402Z,25.71
2022-08-17T19:20:29.485Z,25.71
2022-08-17T19:23:37.593Z,25.58
2022-08-17T19:26:54.896Z,25.55
2022-08-17T19:29:38.407Z,25.44
2022-08-17T19:32:09.843Z,25.29
2022-08-17T19:34:39.087Z,25.12
2022-08-17T19:37:53.899Z,25.11
2022-08-17T19:41:00.878Z,24.94
2022-08-17T19:44:01.866Z,24.88
2022-08-17T19:46:50.069Z,24.82
2022-08-17T19:49:51.248Z,24.77
2022-08-17T19:52:52.742Z,24.70
2022-08-17T19:55:48.321Z,24.56
2022-08-17T19:58:53.151Z,24.42
2022-08-17T20:01:36.998Z,24.35
2022-08-17T20:04:16.147Z,24.39
2022-08-17T20:06:49.352Z,24.44
2022-08-17T20:09:34.195Z,24.42
2022-08-17T20:12:15.493Z,24.40
2022-08-17T20:14:53.733Z,24.40
2022-08-17T20:17:32.430Z,24.28
2022-08-17T20:20:21.234Z,24.22
2022-08-17T20:23:01.271Z,24.21
2022-08-17T20:25:34.830Z,24.22
2022-08-17T20:28:19.529Z,24.18
2022-08-17T20:30:50.713Z,24.17
2022-08-17T20:33:36.704Z,24.03
2022-08-17T20:36:22.575Z,23.95
2022-08-17T20:38:58.152Z,23.91
2022-08-17T20:41:29.971Z,23.94
2022-08-17T20:43:56.640Z,23.86
2022-08-17T20:46:38.312Z,23.82
2022-08-17T20:49:45.008Z,23.84
2022-08-17T20:52:36.169Z,23.77
2022-08-17T20:55:51.439Z,23.77
2022-08-17T20:58:46.505Z,23.70
2022-08-17T21:01:34.531Z,23.66
2022-08-17T21:04:27.494Z,23.68
2022-08-17T21:07:32.949Z,23.58
2022-08-17T21:10:25.579Z,23.45
2022-08-17T21:13:15.313Z,23.37
2022-08-17T21:15:43.784Z,23.27
2022-08-17T21:18:47.464Z,23.15
2022-08-17T21:21:51.022Z,22.98
2022-08-17T21:24:34.640Z,22.89
2022-08-17T21:27:23.628Z,22.78
2022-08-17T21:30:11.841Z,22.73
2022-08-17T21:32:42.779Z,22.56
2022-08-17T21:35:46.584Z,22.65
2022-08-17T21:38:19.469Z,22.68
2022-08-17T21:40:53.152Z,22.78
2022-08-17T21:43:32.352Z,22.73
2022-08-17T21:46:05.153Z,22.78
2022-08-17T21:48:43.905Z,22.79
2022-08-17T21:51:22.808Z,22.86
2022-08-17T21:53:53.043Z,22.91
2022-08-17T21:56:28.250Z,22.90
2022-08-17T21:59:08.467Z,22.91
2022-08-17T22:01:40.332Z,22.83
2022-08-17T22:04:11.330Z,22.80
2022-08-17T22:06:43.031Z,22.71
2022-08-17T22:09:32.124Z,22.64
2022-08-17T22:12:11.324Z,22.55
2022-08-17T22:14:52.607Z,22.60
2022-08-17T22:17:24.268Z,22.63
2022-08-17T22:20:16.821Z,22.59
2022-08-17T22:23:05.291Z,22.61
2022-08-17T22:25:37.245Z,22.59
2022-08-17T22:28:10.752Z,22.51
2022-08-17T22:30:58.012Z,22.30
2022-08-17T22:33:47.987Z,22.30
2022-08-17T22:36:26.869Z,22.42
2022-08-17T22:39:23.015Z,22.44
2022-08-17T22:42:00.738Z,22.44
2022-08-17T22:44:36.412Z,22.47
2022-08-17T22:47:29.354Z,22.41
2022-08-17T22:50:01.807Z,22.38
2022-08-17T22:53:02.795Z,22.31
2022-08-17T22:56:14.339Z,22.31
2022-08-17T22:59:14.503Z,22.32
2022-08-17T23:01:45.312Z,22.42
2022-08-17T23:04:35.403Z,22.47
2022-08-17T23:07:02.271Z,22.34
2022-08-17T23:09:29.943Z,22.27
2022-08-17T23:11:58.593Z,22.21
2022-08-17T23:14:31.562Z,22.34
2022-08-17T23:16:59.460Z,22.36
2022-08-17T23:19:28.523Z,22.44
2022-08-17T23:21:56.902Z,22.51
2022-08-17T23:24:27.720Z,22.44
2022-08-17T23:26:59.564Z,22.47
2022-08-17T23:29:29.298Z,22.42
2022-08-17T23:31:59.883Z,22.32
2022-08-17T23:34:28.129Z,22.37
2022-08-17T23:36:56.180Z,22.39
2022-08-17T23:39:28.035Z,22.35
2022-08-17T23:42:03.330Z,22.14
2022-08-17T23:44:30.978Z,22.09
2022-08-17T23:46:57.668Z,22.17
2022-08-17T23:49:25.250Z,22.10
2022-08-17T23:51:54.640Z,22.07
2022-08-17T23:54:46.615Z,21.98
2022-08-17T23:57:19.824Z,22.09
